Springfield, NJ (07081)

7:52 AM EDT on September 16, 2014 (GMT -0400)
Kenilworth, N.J. | Change Station
CLOSE
Current Station
Personal Weather Station
Location: Kenilworth, NJ
Elevation: 92 ft
Nearby Weather Stations

Elev 92 ft 40.67 °N, 74.30 °W | Updated 3 minutes ago

Rain
Rain
56.3 °F
Feels Like 56.3 °F
N
0.0
Wind Variable Wind from SW
Gusts 1.0 mph

Today
High -- | Low -- °F
--% Chance of Precip.
Yesterday
High -- | Low -- °F
Precip. -- in
6:38 AM 7:04 PM
Last Quarter, 46% visible
Pressure 30.03 in
Visibility 7.0 miles
Clouds Mostly Cloudy 3700 ft
Mostly Cloudy 4500 ft
Overcast 8000 ft
Dew Point 55 °F
Humidity 96%
Rainfall 0.10 in
Snow Depth Not available.
UV 0.0 out of 12
Pollen 3.80 out of 12
Air Quality Not available.
Flu Activity Not available.
METAR KLDJ 161135Z AUTO 32004KT 7SM DZ BKN037 BKN045 OVC080 17/15 A3003 RMK AO2 T01700150

More Conditions Fewer Conditions

Pressure 30.03 in
Visibility 7.0 miles
Clouds Mostly Cloudy 3700 ft
Mostly Cloudy 4500 ft
Overcast 8000 ft
Dew Point 55 °F
Humidity 96%
Rainfall 0.10 in
Snow Depth Not available.
UV 0.0 out of 12
Pollen 3.80 out of 12
Air Quality Not available.
Flu Activity Not available.
METAR KLDJ 161135Z AUTO 32004KT 7SM DZ BKN037 BKN045 OVC080 17/15 A3003 RMK AO2 T01700150

More Conditions Fewer Conditions

10-Day Weather Forecast

Almanac

Astronomy

Sep. 16, 2014 Rise Set
Actual Time 6:38 AM EDT 7:04 PM EDT
Civil Twilight 6:11 AM EDT 7:32 PM EDT
Nautical Twilight 5:39 AM EDT 8:04 PM EDT
Astronomical Twilight 5:05 AM EDT 8:37 PM EDT
Moon No Moon Rise 2:27 PM EDT
Length of Visible Light 13h 20m
Length of Day
12h 25m
Tomorrow will be 2m 41s shorter.
Last Quarter, 46% of the Moon is Illuminated
Today
Last Quarter
Sep 24
New
Oct 1
First Quarter
Oct 8
Full
Oct 15
Last Quarter

Today's Extremes

State Highs State Lows

Community

WunderPhotos

Upload Photos

1,753,724 photos uploaded!

Nearby

Snow Depth

Station Depth Elevation
No new snow has been reported.

Earthquake Activity

City Distance Mag. Time & Date
No recent earthquake activity has been reported nearby.
Minimum magnitude displayed is 2.5.

Coastal Water Temperatures

Place Temperature
Sandy Hook, NJ 69.1 °F
The Battery, NY 71.1 °F
Bergen Point West Reach, NJ 71.1 °F
Kings Point, NY 69.1 °F

Nearby Weather Stations